Pagina principale
METAR-TAF:

METAR-TAF

Aeroporti :

Contea di Franklin, Vermont, Stati Uniti

latitudine: 44-56-25N, longitudine: 073-05-51W, altezza: 69 m

Osservazione

Il bollettino è stato emesso 15 minuti fa, alle 03:55 UTC
Vento 3 kt da est
Temperature 3°C
Umidità 93%
Pressione 1019 hPa
Visibilità: 16.1 km
Nubi sparse ad un'altezza di 3700 ft
Nuvoloso ad un'altezza di 4700 ft
Cielo coperto ad un'altezza di 6500 ft
sconosciuto

METAR: KFSO 230355Z AUTO 10003KT 10SM UP SCT037 BKN047 OVC065 03/02 A3010 RMK AO2 T00290015

Ora: 00:10 (04:10 UTC)


TAF: mancante

Osservazioni e previsioni meteorologiche di più di 4000 aeroporti (messaggi METAR e TAF).

Le stazioni disponibili sono rappresentate dai dischi gialli e rossi sulla carta.

Puntare il mouse per vedere il nome della stazione.

Clicca sopra per visualizzare le osservazioni e previsioni meteorologiche.

Per cambiare la mappa : fare clic sui pulsanti verdi con una croce nera per ingrandire, il pulsante verde con un trattino per diminuire, o sulla freccia verde per le mappe adiacenti.


METAR-TAF: